Time;durP1;ratioP1;P1;durP2;ratioP2;P2;SDS_P1;SDS_P2;PMS_P1;PMS_P2;Temp;Humidity;BMP_temperature;BMP_pressure;BME280_temperature;BME280_humidity;BME280_pressure;Samples;Min_cycle;Max_cycle;Signal;HPM_P1;HPM_P2
2021/01/27 00:00:18;;;;;;;11.23;4.43;;;-0.90;99.90;;;;;;5070434;28;20032;-75
2021/01/27 00:02:44;;;;;;;13.93;6.28;;;-1.00;99.90;;;;;;5070487;28;20036;-75
2021/01/27 00:05:14;;;;;;;13.07;6.18;;;-1.00;99.90;;;;;;5070533;28;20382;-75
2021/01/27 00:07:40;;;;;;;12.48;6.30;;;-0.90;99.90;;;;;;5070114;28;20040;-75
2021/01/27 00:10:06;;;;;;;17.48;7.50;;;-0.90;99.90;;;;;;5070341;28;20119;-75
2021/01/27 00:12:33;;;;;;;13.23;6.03;;;-0.80;99.90;;;;;;5069901;28;20040;-75
2021/01/27 00:14:58;;;;;;;10.15;4.55;;;-0.80;99.90;;;;;;5070411;28;20052;-75
2021/01/27 00:17:24;;;;;;;14.02;6.22;;;-0.90;99.90;;;;;;5069837;28;20077;-75
2021/01/27 00:19:50;;;;;;;9.52;4.15;;;-0.90;99.90;;;;;;5070278;28;20108;-75
2021/01/27 00:22:15;;;;;;;8.73;3.58;;;-0.90;99.90;;;;;;5069882;28;20482;-75
2021/01/27 00:24:41;;;;;;;7.57;3.20;;;-0.90;99.90;;;;;;5070562;28;20024;-75
2021/01/27 00:27:06;;;;;;;9.45;3.72;;;-1.00;99.90;;;;;;5065628;28;20060;-75
2021/01/27 00:29:32;;;;;;;7.85;2.97;;;-1.20;99.90;;;;;;5050284;28;20021;-75
2021/01/27 00:31:57;;;;;;;13.30;3.65;;;-1.20;99.90;;;;;;5051038;28;20048;-75
2021/01/27 00:34:23;;;;;;;7.18;3.17;;;-1.20;99.90;;;;;;5069997;28;20024;-75
2021/01/27 00:36:50;;;;;;;5.22;2.40;;;-1.20;99.90;;;;;;5069416;28;20025;-75
2021/01/27 00:39:16;;;;;;;7.47;2.50;;;-1.20;99.90;;;;;;5069356;28;20028;-75
2021/01/27 00:41:41;;;;;;;9.63;2.97;;;-1.20;99.90;;;;;;5070255;28;20024;-75
2021/01/27 00:44:07;;;;;;;6.32;2.65;;;-1.10;99.90;;;;;;5060155;28;20025;-75
2021/01/27 00:46:33;;;;;;;6.97;2.90;;;-1.20;99.90;;;;;;5069908;28;20036;-75
2021/01/27 00:48:59;;;;;;;4.45;1.48;;;-1.10;99.90;;;;;;5068999;28;20028;-75
2021/01/27 00:51:26;;;;;;;3.95;1.10;;;-1.10;99.90;;;;;;5069491;28;20925;-75
2021/01/27 00:53:52;;;;;;;5.22;2.08;;;-1.10;99.90;;;;;;5067809;28;20020;-75
2021/01/27 00:56:18;;;;;;;3.72;1.38;;;-1.10;99.90;;;;;;5049581;28;20051;-75
2021/01/27 00:58:44;;;;;;;2.75;1.10;;;-1.10;99.90;;;;;;5050033;28;20025;-75
2021/01/27 01:01:09;;;;;;;6.63;2.30;;;-1.10;99.90;;;;;;5068675;28;20124;-75
2021/01/27 01:03:36;;;;;;;6.28;2.58;;;-1.10;99.90;;;;;;5069984;28;20079;-75
2021/01/27 01:06:01;;;;;;;7.82;3.25;;;-1.10;99.90;;;;;;5068722;28;20036;-75
2021/01/27 01:08:27;;;;;;;8.15;3.03;;;-1.10;99.90;;;;;;5068021;28;20263;-75
2021/01/27 01:10:54;;;;;;;5.95;2.33;;;-1.10;99.90;;;;;;5068882;28;20028;-75
2021/01/27 01:13:23;;;;;;;3.83;1.45;;;-1.10;99.90;;;;;;5066751;28;20046;-75
2021/01/27 01:15:50;;;;;;;4.40;1.23;;;-1.10;99.90;;;;;;5069541;28;20573;-75
2021/01/27 01:18:15;;;;;;;3.95;1.50;;;-1.10;99.90;;;;;;5068867;28;20024;-74
2021/01/27 01:20:41;;;;;;;4.30;1.38;;;-1.10;99.90;;;;;;5068864;28;20066;-75
2021/01/27 01:23:10;;;;;;;5.07;1.40;;;-1.10;99.90;;;;;;5068742;28;20060;-76
2021/01/27 01:25:36;;;;;;;5.45;1.30;;;-1.10;99.90;;;;;;5069084;28;20107;-75
2021/01/27 01:28:04;;;;;;;4.25;1.77;;;-1.20;99.90;;;;;;5058351;28;20117;-75
2021/01/27 01:30:32;;;;;;;4.50;1.77;;;-1.10;99.90;;;;;;5049594;28;20079;-75
2021/01/27 01:33:04;;;;;;;5.88;1.70;;;-1.10;99.90;;;;;;5049357;28;20577;-75
2021/01/27 01:35:30;;;;;;;8.07;1.98;;;-1.20;99.90;;;;;;5049695;28;20025;-74
2021/01/27 01:37:56;;;;;;;4.68;1.67;;;-1.20;99.90;;;;;;5048869;28;20065;-74
2021/01/27 01:40:28;;;;;;;4.68;2.03;;;-1.20;99.90;;;;;;5049350;28;20074;-74
2021/01/27 01:43:18;;;;;;;7.00;2.35;;;-1.30;99.90;;;;;;5054195;28;20107;-74
2021/01/27 01:45:46;;;;;;;9.45;3.75;;;-1.30;99.90;;;;;;5049586;28;20107;-74
2021/01/27 01:48:28;;;;;;;7.75;3.28;;;-1.30;99.90;;;;;;5050484;28;20546;-75
2021/01/27 01:51:18;;;;;;;10.50;4.78;;;-1.30;99.90;;;;;;5053443;28;20493;-75
2021/01/27 01:53:48;;;;;;;12.70;5.28;;;-1.40;99.90;;;;;;5024030;28;20056;-74
2021/01/27 01:56:17;;;;;;;10.68;4.10;;;-1.40;99.90;;;;;;5073606;28;20478;-75
2021/01/27 01:58:43;;;;;;;10.15;3.83;;;-1.30;99.90;;;;;;5073768;28;20123;-75
2021/01/27 02:01:09;;;;;;;6.90;3.30;;;-1.30;99.90;;;;;;5053754;28;20108;-74
2021/01/27 02:03:36;;;;;;;9.70;4.22;;;-1.30;99.90;;;;;;5054181;28;20553;-75
2021/01/27 02:06:05;;;;;;;10.20;3.95;;;-1.30;99.90;;;;;;5069319;28;20473;-75
2021/01/27 02:08:31;;;;;;;10.85;3.97;;;-1.30;99.90;;;;;;5073878;28;20036;-75
2021/01/27 02:10:58;;;;;;;9.15;4.28;;;-1.30;99.90;;;;;;5058715;28;20036;-75
2021/01/27 02:13:43;;;;;;;11.95;5.90;;;-1.20;99.90;;;;;;5054174;28;20029;-75
2021/01/27 02:16:20;;;;;;;20.27;8.65;;;-1.20;99.90;;;;;;5060563;28;20094;-74
2021/01/27 02:19:16;;;;;;;12.25;5.93;;;-1.30;99.90;;;;;;5058832;28;20120;-75
2021/01/27 02:21:57;;;;;;;12.05;5.00;;;-1.20;99.90;;;;;;5072447;28;20038;-75
2021/01/27 02:25:00;;;;;;;12.07;4.60;;;-1.30;99.90;;;;;;5073201;28;20037;-74
2021/01/27 02:27:33;;;;;;;12.80;4.75;;;-1.20;99.90;;;;;;5071873;28;20159;-74
2021/01/27 02:30:14;;;;;;;10.55;4.38;;;-1.20;99.90;;;;;;5072649;28;20024;-75
2021/01/27 02:33:17;;;;;;;10.57;4.18;;;-1.20;99.90;;;;;;5071810;28;20028;-75
2021/01/27 02:35:58;;;;;;;9.90;3.80;;;-1.10;99.90;;;;;;5072687;28;20074;-74
2021/01/27 02:38:52;;;;;;;8.68;3.72;;;-1.10;99.90;;;;;;5072432;28;20040;-75
2021/01/27 02:41:24;;;;;;;9.73;4.00;;;-1.30;99.90;;;;;;5072189;28;20028;-74
2021/01/27 02:43:55;;;;;;;7.88;3.08;;;-1.30;99.90;;;;;;5071636;28;20463;-74
2021/01/27 02:46:30;;;;;;;7.38;3.28;;;-1.20;99.90;;;;;;5054526;28;20082;-74
2021/01/27 02:49:07;;;;;;;8.00;3.20;;;-1.20;99.90;;;;;;5068160;28;20084;-74
2021/01/27 02:51:55;;;;;;;10.65;4.60;;;-1.10;99.90;;;;;;5052521;28;20033;-75
2021/01/27 02:55:09;;;;;;;8.63;3.80;;;-1.20;99.90;;;;;;5040925;28;20056;-74
2021/01/27 02:57:43;;;;;;;9.68;3.50;;;-1.20;99.90;;;;;;5054478;28;20055;-75
2021/01/27 03:00:09;;;;;;;6.68;2.45;;;-1.10;99.90;;;;;;5071321;28;20070;-74
2021/01/27 03:02:37;;;;;;;6.38;2.67;;;-1.10;99.90;;;;;;5072301;28;20040;-74
2021/01/27 03:05:15;;;;;;;6.55;3.00;;;-1.00;99.90;;;;;;5066227;28;20402;-74
2021/01/27 03:07:44;;;;;;;6.32;2.20;;;-0.90;99.90;;;;;;5051459;28;20470;-74
2021/01/27 03:10:21;;;;;;;6.07;2.67;;;-0.90;99.90;;;;;;5051753;28;20025;-75
2021/01/27 03:12:49;;;;;;;7.35;2.97;;;-0.80;99.90;;;;;;5067454;28;20078;-74
2021/01/27 03:15:15;;;;;;;7.70;3.08;;;-0.90;99.90;;;;;;5072183;28;20071;-74
2021/01/27 03:17:43;;;;;;;7.13;3.15;;;-0.80;99.90;;;;;;5057623;28;20025;-75
2021/01/27 03:20:11;;;;;;;7.72;3.10;;;-0.80;99.90;;;;;;5052061;28;20033;-75
2021/01/27 03:22:46;;;;;;;7.80;2.75;;;-0.70;99.90;;;;;;5050885;28;20103;-74
2021/01/27 03:25:27;;;;;;;4.95;2.20;;;-0.70;99.90;;;;;;5056478;28;20103;-74
2021/01/27 03:28:05;;;;;;;9.00;3.30;;;-0.70;99.90;;;;;;5071710;28;20040;-74
2021/01/27 03:30:32;;;;;;;8.40;3.33;;;-0.80;99.90;;;;;;5064728;28;20098;-75
2021/01/27 03:33:00;;;;;;;7.70;2.53;;;-0.80;99.90;;;;;;5052004;28;20592;-74
2021/01/27 03:35:37;;;;;;;5.65;2.45;;;-0.70;99.90;;;;;;5054823;28;20055;-74
2021/01/27 03:38:19;;;;;;;6.32;2.17;;;-0.70;99.90;;;;;;5071334;28;20036;-74
2021/01/27 03:40:46;;;;;;;6.93;2.75;;;-0.70;99.90;;;;;;5066350;28;20031;-74
2021/01/27 03:43:15;;;;;;;7.05;2.63;;;-0.70;99.90;;;;;;5051259;28;20041;-74
2021/01/27 03:45:46;;;;;;;8.30;2.45;;;-0.60;99.90;;;;;;5053872;28;20035;-74
2021/01/27 03:48:22;;;;;;;6.00;2.67;;;-0.60;99.90;;;;;;5071586;28;20556;-75
2021/01/27 03:50:54;;;;;;;9.23;3.63;;;-0.60;99.90;;;;;;5068435;28;20503;-74
2021/01/27 03:53:20;;;;;;;8.20;3.22;;;-0.60;99.90;;;;;;5051375;28;20092;-76
2021/01/27 03:56:14;;;;;;;5.75;2.63;;;-0.60;99.90;;;;;;5051221;28;20895;-74
2021/01/27 03:58:44;;;;;;;5.45;2.28;;;-0.60;99.90;;;;;;5071456;28;20039;-74
2021/01/27 04:01:16;;;;;;;6.72;2.63;;;-0.60;99.90;;;;;;5069761;28;20040;-75
2021/01/27 04:03:42;;;;;;;7.65;2.53;;;-0.60;99.90;;;;;;5071061;28;20040;-74
2021/01/27 04:06:09;;;;;;;8.15;2.28;;;-0.60;99.90;;;;;;5070483;28;20476;-74
2021/01/27 04:08:36;;;;;;;7.32;2.67;;;-0.60;99.90;;;;;;5069838;28;20028;-74
2021/01/27 04:11:03;;;;;;;6.88;2.60;;;-0.50;99.90;;;;;;5068832;28;20119;-75
2021/01/27 04:13:29;;;;;;;8.15;2.63;;;-0.50;99.90;;;;;;5066080;28;20039;-75
2021/01/27 04:16:04;;;;;;;9.98;3.65;;;-0.60;99.90;;;;;;5069793;28;21048;-75
2021/01/27 04:18:30;;;;;;;8.48;3.47;;;-0.50;99.90;;;;;;5071404;28;20028;-75
2021/01/27 04:20:56;;;;;;;10.15;3.60;;;-0.50;99.90;;;;;;5072229;28;20033;-74
2021/01/27 04:23:22;;;;;;;11.05;3.63;;;-0.40;99.90;;;;;;5071585;28;20056;-75
2021/01/27 04:25:48;;;;;;;7.97;4.03;;;-0.40;99.90;;;;;;5072824;28;20039;-74
2021/01/27 04:28:14;;;;;;;8.80;3.03;;;-0.40;99.90;;;;;;5072223;28;20036;-75
2021/01/27 04:30:40;;;;;;;9.20;3.67;;;-0.40;99.90;;;;;;5072316;28;20024;-75
2021/01/27 04:33:08;;;;;;;9.10;3.20;;;-0.40;99.90;;;;;;5071806;28;20075;-75
2021/01/27 04:35:34;;;;;;;9.38;3.97;;;-0.40;99.90;;;;;;5072442;28;20021;-74
2021/01/27 04:38:00;;;;;;;9.95;4.20;;;-0.40;99.90;;;;;;5059552;28;20059;-75
2021/01/27 04:40:41;;;;;;;15.75;5.97;;;-0.40;99.90;;;;;;5051337;28;20111;-75
2021/01/27 04:43:20;;;;;;;12.88;5.85;;;-0.40;99.90;;;;;;5060993;28;20072;-75
2021/01/27 04:45:49;;;;;;;9.43;4.75;;;-0.40;99.90;;;;;;5070123;28;20090;-75
2021/01/27 04:48:25;;;;;;;9.02;3.83;;;-0.40;99.90;;;;;;5058006;28;20037;-75
2021/01/27 04:51:00;;;;;;;10.02;3.95;;;-0.30;99.90;;;;;;5064151;28;20527;-75
2021/01/27 04:53:40;;;;;;;8.23;3.38;;;-0.30;99.90;;;;;;5070099;28;20425;-74
2021/01/27 04:56:43;;;;;;;7.50;2.75;;;-0.30;99.90;;;;;;5068755;28;20028;-75
2021/01/27 04:59:54;;;;;;;9.80;3.13;;;-0.40;99.90;;;;;;5057452;28;20120;-74
2021/01/27 05:02:35;;;;;;;9.88;3.40;;;-0.40;99.90;;;;;;5061543;28;20029;-75
2021/01/27 05:05:10;;;;;;;8.00;3.10;;;-0.40;99.90;;;;;;5049665;28;20374;-74
2021/01/27 05:07:45;;;;;;;13.00;5.78;;;-0.40;99.90;;;;;;5053971;28;20603;-75
2021/01/27 05:10:22;;;;;;;9.35;3.75;;;-0.40;99.90;;;;;;5056598;28;20036;-74
2021/01/27 05:12:57;;;;;;;8.77;3.20;;;-0.40;99.90;;;;;;5056005;28;20496;-75
2021/01/27 05:15:24;;;;;;;10.32;4.32;;;-0.40;99.90;;;;;;5049947;28;20063;-75
2021/01/27 05:17:51;;;;;;;9.68;4.13;;;-0.40;99.90;;;;;;5048631;28;20070;-75
2021/01/27 05:20:19;;;;;;;9.10;2.85;;;-0.40;99.90;;;;;;5049740;28;20067;-75
2021/01/27 05:22:45;;;;;;;7.80;2.05;;;-0.40;99.90;;;;;;5049264;28;20135;-74
2021/01/27 05:25:27;;;;;;;5.50;1.77;;;-0.50;99.90;;;;;;5049273;28;20033;-75
2021/01/27 05:27:56;;;;;;;5.53;2.30;;;-0.50;99.90;;;;;;5049682;28;20474;-75
2021/01/27 05:30:21;;;;;;;4.07;1.70;;;-0.40;99.90;;;;;;5067695;28;20119;-75
2021/01/27 05:32:56;;;;;;;5.32;2.13;;;-0.40;99.90;;;;;;5070256;28;20104;-75
2021/01/27 05:35:30;;;;;;;4.88;1.98;;;-0.40;99.90;;;;;;5052644;28;20474;-75
2021/01/27 05:37:57;;;;;;;5.88;1.80;;;-0.30;99.90;;;;;;5049837;28;20068;-75
2021/01/27 05:40:34;;;;;;;6.60;3.38;;;-0.30;99.90;;;;;;5064957;28;20037;-75
2021/01/27 05:43:15;;;;;;;7.15;2.55;;;-0.30;99.90;;;;;;5069438;28;20056;-75
2021/01/27 05:45:47;;;;;;;9.50;2.10;;;-0.30;99.90;;;;;;5069075;28;20477;-75
2021/01/27 05:48:34;;;;;;;5.18;2.03;;;-0.40;99.90;;;;;;5069597;28;20032;-74
2021/01/27 05:51:05;;;;;;;5.22;1.88;;;-0.40;99.90;;;;;;5069154;28;20028;-75
2021/01/27 05:53:33;;;;;;;4.85;1.45;;;-0.40;99.90;;;;;;5070182;28;20170;-74
2021/01/27 05:56:03;;;;;;;4.38;1.70;;;-0.40;99.90;;;;;;5069351;28;20048;-75
2021/01/27 05:58:38;;;;;;;5.68;2.05;;;-0.30;99.90;;;;;;5069769;28;20032;-75
2021/01/27 06:01:22;;;;;;;7.30;2.30;;;-0.30;99.90;;;;;;5055772;28;20058;-75
2021/01/27 06:03:58;;;;;;;6.93;2.17;;;-0.30;99.90;;;;;;5069616;28;20075;-75
2021/01/27 06:06:27;;;;;;;6.68;2.45;;;-0.30;99.90;;;;;;5067312;28;20067;-75
2021/01/27 06:08:56;;;;;;;3.50;1.40;;;-0.30;99.90;;;;;;5069726;28;20067;-75
2021/01/27 06:11:22;;;;;;;5.35;1.80;;;-0.40;99.90;;;;;;5065323;28;20047;-75
2021/01/27 06:13:49;;;;;;;6.70;1.40;;;-0.40;99.90;;;;;;5060595;28;20131;-74
2021/01/27 06:16:20;;;;;;;6.90;1.98;;;-0.50;99.90;;;;;;5059564;28;20087;-74
2021/01/27 06:18:45;;;;;;;4.50;1.55;;;-0.60;99.90;;;;;;5069814;28;20132;-75
2021/01/27 06:21:37;;;;;;;7.45;2.08;;;-0.50;99.90;;;;;;5057896;28;20143;-74
2021/01/27 06:24:26;;;;;;;5.97;2.70;;;-0.60;99.90;;;;;;5052935;28;20409;-74
2021/01/27 06:27:09;;;;;;;6.15;1.50;;;-0.60;99.90;;;;;;5068155;28;20040;-75
2021/01/27 06:29:48;;;;;;;5.00;1.90;;;-0.60;99.90;;;;;;5068291;28;20561;-75
2021/01/27 06:32:33;;;;;;;7.95;3.78;;;-0.70;99.90;;;;;;5054908;28;20082;-74
2021/01/27 06:35:25;;;;;;;6.63;3.35;;;-0.70;99.90;;;;;;5056148;28;20057;-75
2021/01/27 06:38:09;;;;;;;8.50;3.10;;;-0.70;99.90;;;;;;5066920;28;20097;-75
2021/01/27 06:40:49;;;;;;;6.78;3.38;;;-0.80;99.90;;;;;;5065278;28;20036;-75
2021/01/27 06:43:52;;;;;;;8.00;2.00;;;-0.80;99.90;;;;;;5064026;28;20460;-74
2021/01/27 06:46:44;;;;;;;3.80;1.30;;;-0.80;99.90;;;;;;5064085;28;20162;-75
2021/01/27 06:49:40;;;;;;;3.80;1.60;;;-0.80;99.90;;;;;;5063169;28;20678;-75
2021/01/27 06:52:43;;;;;;;4.88;1.77;;;-0.80;99.90;;;;;;5061278;28;20152;-75
2021/01/27 06:55:36;;;;;;;3.88;1.63;;;-0.80;99.90;;;;;;5064049;28;20808;-74
2021/01/27 06:58:31;;;;;;;6.90;2.10;;;-0.70;99.90;;;;;;5066339;28;20032;-74
2021/01/27 07:01:33;;;;;;;4.75;1.80;;;-0.80;99.90;;;;;;5064523;28;20112;-74
2021/01/27 07:04:28;;;;;;;4.45;1.92;;;-0.80;99.90;;;;;;5052184;28;20079;-75
2021/01/27 07:07:03;;;;;;;7.28;2.70;;;-0.90;99.90;;;;;;5068181;28;20052;-74
2021/01/27 07:09:54;;;;;;;3.58;1.45;;;-0.80;99.90;;;;;;5051697;28;20036;-74
2021/01/27 07:12:29;;;;;;;8.00;2.67;;;-0.80;99.90;;;;;;5069605;28;20111;-75
2021/01/27 07:15:17;;;;;;;5.63;2.13;;;-0.80;99.90;;;;;;5071421;28;20031;-75
2021/01/27 07:18:29;;;;;;;5.38;2.60;;;-0.70;99.90;;;;;;5067290;28;20059;-74
2021/01/27 07:21:12;;;;;;;4.88;1.73;;;-0.70;99.90;;;;;;5052407;28;20414;-75
2021/01/27 07:23:56;;;;;;;;;;;-0.60;99.90;;;;;;5059073;28;20087;-74
2021/01/27 07:26:25;;;;;;;6.07;2.03;;;-0.60;99.90;;;;;;5061136;28;19909;-74
2021/01/27 07:29:19;;;;;;;5.38;2.30;;;-0.60;99.90;;;;;;5067712;28;20037;-74
2021/01/27 07:31:50;;;;;;;3.55;1.35;;;-0.60;99.90;;;;;;5064708;28;20083;-74
2021/01/27 07:34:19;;;;;;;4.90;1.90;;;-0.50;99.90;;;;;;5057594;28;20108;-75
2021/01/27 07:36:59;;;;;;;4.95;1.60;;;-0.50;99.90;;;;;;5062997;28;20111;-74
2021/01/27 07:39:42;;;;;;;4.90;1.45;;;-0.40;99.90;;;;;;5054060;28;20541;-75
2021/01/27 07:42:17;;;;;;;3.88;1.40;;;-0.30;99.90;;;;;;5060239;28;20029;-75
2021/01/27 07:44:47;;;;;;;5.10;1.40;;;-0.30;99.90;;;;;;5067177;28;20124;-75
2021/01/27 07:47:35;;;;;;;4.75;1.40;;;-0.20;99.90;;;;;;5060960;28;20343;-74
2021/01/27 07:50:01;;;;;;;4.28;1.30;;;-0.20;99.90;;;;;;5062442;28;20032;-75
2021/01/27 07:52:34;;;;;;;3.88;1.20;;;-0.10;99.90;;;;;;5058489;28;20044;-75
2021/01/27 07:55:14;;;;;;;3.00;1.30;;;-0.10;99.90;;;;;;5069106;28;20067;-75
2021/01/27 07:58:03;;;;;;;4.30;1.23;;;-0.10;99.90;;;;;;5072790;28;20032;-75
2021/01/27 08:00:57;;;;;;;5.07;1.40;;;0.00;99.90;;;;;;5073303;28;20378;-74
2021/01/27 08:03:30;;;;;;;5.38;1.35;;;0.00;99.90;;;;;;5039500;28;20550;-74
2021/01/27 08:06:01;;;;;;;2.97;1.30;;;0.10;99.90;;;;;;5060686;28;20055;-74
2021/01/27 08:08:28;;;;;;;3.65;1.30;;;0.10;99.90;;;;;;5062924;28;20132;-75
2021/01/27 08:10:54;;;;;;;3.47;1.20;;;0.10;99.90;;;;;;5062528;28;20067;-75
2021/01/27 08:13:28;;;;;;;3.45;1.10;;;0.10;99.90;;;;;;5071165;28;20040;-75
2021/01/27 08:16:08;;;;;;;4.90;1.75;;;0.10;99.90;;;;;;5053012;28;20106;-75
2021/01/27 08:18:34;;;;;;;6.40;2.25;;;0.20;99.90;;;;;;5072287;28;20024;-75
2021/01/27 08:21:18;;;;;;;6.22;1.80;;;0.20;99.90;;;;;;5069203;28;20032;-75
2021/01/27 08:23:47;;;;;;;4.97;1.58;;;0.30;99.90;;;;;;5068568;28;20059;-75
2021/01/27 08:26:38;;;;;;;4.80;1.13;;;0.30;99.90;;;;;;5058861;28;20070;-75
2021/01/27 08:29:08;;;;;;;3.40;1.10;;;0.30;99.90;;;;;;5059166;28;20044;-75
2021/01/27 08:31:34;;;;;;;5.75;1.50;;;0.40;99.90;;;;;;5063732;28;20025;-75
2021/01/27 08:33:59;;;;;;;9.23;3.30;;;0.50;99.90;;;;;;5060128;28;20040;-75
2021/01/27 08:36:31;;;;;;;9.77;3.63;;;0.50;99.90;;;;;;5065642;28;20067;-74
2021/01/27 08:38:56;;;;;;;8.10;2.63;;;0.50;99.90;;;;;;5062366;28;20084;-75
2021/01/27 08:41:40;;;;;;;7.65;2.53;;;0.50;99.90;;;;;;5050307;28;20474;-75
2021/01/27 08:44:25;;;;;;;5.38;2.22;;;0.60;99.90;;;;;;5059513;28;20476;-75
2021/01/27 08:47:16;;;;;;;9.00;1.65;;;0.60;99.90;;;;;;5067889;28;20839;-75
2021/01/27 08:49:44;;;;;;;5.25;1.88;;;0.60;99.90;;;;;;5022623;28;20079;-75
2021/01/27 08:52:10;;;;;;;10.30;5.90;;;0.60;99.90;;;;;;5064424;28;20852;-75
2021/01/27 08:54:49;;;;;;;8.18;3.20;;;0.60;99.90;;;;;;5063499;28;20021;-75
2021/01/27 08:57:17;;;;;;;5.85;2.30;;;0.70;99.90;;;;;;5069943;28;20025;-75
2021/01/27 09:00:30;;;;;;;9.20;4.70;;;0.70;99.90;;;;;;5068757;28;20024;-75
2021/01/27 09:03:00;;;;;;;10.80;4.65;;;0.70;99.90;;;;;;5057156;28;20198;-75
2021/01/27 09:05:26;;;;;;;9.13;4.45;;;0.80;99.90;;;;;;5059511;28;20662;-74
2021/01/27 09:08:02;;;;;;;6.18;2.95;;;0.70;99.90;;;;;;5056035;28;20099;-75
2021/01/27 09:10:35;;;;;;;7.32;2.95;;;0.80;99.90;;;;;;5066904;28;20063;-74
2021/01/27 09:13:19;;;;;;;30.65;16.67;;;0.80;99.90;;;;;;5053856;28;20055;-75
2021/01/27 09:15:50;;;;;;;17.23;8.65;;;0.80;99.90;;;;;;5061406;28;20058;-75
2021/01/27 09:18:15;;;;;;;8.38;2.95;;;0.90;99.90;;;;;;5060396;28;20034;-75
2021/01/27 09:20:41;;;;;;;9.40;3.53;;;0.80;99.90;;;;;;5069352;28;20024;-75
2021/01/27 09:23:08;;;;;;;8.85;2.63;;;0.80;99.90;;;;;;5059844;28;20090;-75
2021/01/27 09:25:44;;;;;;;4.63;1.77;;;0.80;99.90;;;;;;5066111;28;20056;-74
2021/01/27 09:28:10;;;;;;;5.47;2.38;;;0.90;99.90;;;;;;5064449;28;20070;-76
2021/01/27 09:30:37;;;;;;;6.53;2.75;;;1.00;99.90;;;;;;5065160;28;20037;-75
2021/01/27 09:33:19;;;;;;;9.27;3.80;;;0.90;99.90;;;;;;5052934;28;20033;-75
2021/01/27 09:35:46;;;;;;;21.70;9.75;;;0.90;99.90;;;;;;5057208;28;20021;-75
2021/01/27 09:38:18;;;;;;;9.95;4.00;;;1.00;99.90;;;;;;5056750;28;20047;-75
2021/01/27 09:40:45;;;;;;;4.27;1.20;;;1.00;99.90;;;;;;5057243;28;20124;-75
2021/01/27 09:43:14;;;;;;;6.55;1.73;;;1.00;99.90;;;;;;5061933;28;20478;-75
2021/01/27 09:45:44;;;;;;;12.38;5.85;;;1.00;99.90;;;;;;5063507;28;20086;-75
2021/01/27 09:48:12;;;;;;;8.75;2.50;;;1.10;99.90;;;;;;5065066;28;20032;-75
2021/01/27 09:50:40;;;;;;;6.30;1.88;;;1.20;99.90;;;;;;5056484;28;20058;-75
2021/01/27 09:53:07;;;;;;;4.07;1.40;;;1.20;99.90;;;;;;5061476;28;20470;-75
2021/01/27 09:55:33;;;;;;;5.78;1.80;;;1.20;99.90;;;;;;5056335;28;20029;-75
2021/01/27 09:58:04;;;;;;;9.20;2.88;;;1.20;99.90;;;;;;5065372;28;20037;-74
2021/01/27 10:00:34;;;;;;;13.18;5.30;;;1.20;99.90;;;;;;5060531;28;20155;-74
2021/01/27 10:03:21;;;;;;;18.17;10.60;;;1.30;99.90;;;;;;5059467;28;20025;-74
2021/01/27 10:05:47;;;;;;;13.30;4.88;;;1.30;99.90;;;;;;5053519;28;20045;-74
2021/01/27 10:08:35;;;;;;;9.75;2.83;;;1.40;99.90;;;;;;5054404;28;20028;-75
2021/01/27 10:11:09;;;;;;;6.97;2.40;;;1.40;99.90;;;;;;5063362;28;20040;-75
2021/01/27 10:13:37;;;;;;;6.93;2.35;;;1.30;99.90;;;;;;5073165;28;20117;-74
2021/01/27 10:16:09;;;;;;;7.95;2.80;;;1.30;99.90;;;;;;5073551;28;20044;-75
2021/01/27 10:18:36;;;;;;;;;;;1.30;99.90;;;;;;5069761;28;20020;-74
2021/01/27 10:21:06;;;;;;;21.50;10.05;;;1.20;99.90;;;;;;5072444;28;19950;-74
2021/01/27 10:23:36;;;;;;;10.40;4.22;;;1.20;99.90;;;;;;5069989;28;20053;-74
2021/01/27 10:26:21;;;;;;;9.80;3.97;;;1.20;99.90;;;;;;5064344;28;20036;-75
2021/01/27 10:28:46;;;;;;;9.93;2.67;;;1.20;99.90;;;;;;5062851;28;20399;-75
2021/01/27 10:31:35;;;;;;;4.90;1.90;;;1.30;99.90;;;;;;5072125;28;20033;-75
2021/01/27 10:34:01;;;;;;;5.75;2.10;;;1.40;99.90;;;;;;5068750;28;20036;-75
2021/01/27 10:36:38;;;;;;;10.65;2.60;;;1.40;99.90;;;;;;5052820;28;20040;-75
2021/01/27 10:39:19;;;;;;;7.00;2.58;;;1.40;99.90;;;;;;5071441;28;20118;-75
2021/01/27 10:41:49;;;;;;;6.60;2.50;;;1.50;99.90;;;;;;5069359;28;20032;-74
2021/01/27 10:44:22;;;;;;;9.07;3.67;;;1.60;99.90;;;;;;5065780;28;20857;-74
2021/01/27 10:46:50;;;;;;;19.55;9.15;;;1.60;99.90;;;;;;5064959;28;20039;-75
2021/01/27 10:49:15;;;;;;;9.85;4.57;;;1.60;99.90;;;;;;5052404;28;20122;-75
2021/01/27 10:51:43;;;;;;;8.73;3.50;;;1.60;99.90;;;;;;5056239;28;20733;-75
2021/01/27 10:54:09;;;;;;;9.38;3.30;;;1.60;99.90;;;;;;5071310;28;20040;-74
2021/01/27 10:56:34;;;;;;;11.30;5.20;;;1.60;99.90;;;;;;5060878;28;20036;-75
2021/01/27 10:59:00;;;;;;;9.75;2.75;;;1.50;99.90;;;;;;5070256;28;20036;-75
2021/01/27 11:01:25;;;;;;;8.05;2.90;;;1.60;99.90;;;;;;5066101;28;20059;-74
2021/01/27 11:03:51;;;;;;;10.65;3.80;;;1.60;99.90;;;;;;5058530;28;20037;-74
2021/01/27 11:06:18;;;;;;;8.20;3.50;;;1.60;99.90;;;;;;5059875;28;20429;-75
2021/01/27 11:08:45;;;;;;;10.82;5.25;;;1.60;99.90;;;;;;5065492;28;20032;-74
2021/01/27 11:11:12;;;;;;;12.38;4.60;;;1.60;99.90;;;;;;5062775;28;20036;-75
2021/01/27 11:13:38;;;;;;;7.68;2.47;;;1.50;99.90;;;;;;5058937;28;20074;-74
2021/01/27 11:16:07;;;;;;;9.30;3.67;;;1.50;99.90;;;;;;5060394;28;20048;-75
2021/01/27 11:18:34;;;;;;;10.90;3.10;;;1.40;99.90;;;;;;5062370;28;20382;-74
2021/01/27 11:20:59;;;;;;;5.95;2.70;;;1.50;99.90;;;;;;5058859;28;20041;-74
2021/01/27 11:23:25;;;;;;;11.95;3.35;;;1.50;99.90;;;;;;5068889;28;20044;-74
2021/01/27 11:25:53;;;;;;;10.52;3.17;;;1.50;99.90;;;;;;5057463;28;20039;-75
2021/01/27 11:28:20;;;;;;;8.90;3.13;;;1.50;99.90;;;;;;5054954;28;20032;-74
2021/01/27 11:30:47;;;;;;;6.82;2.70;;;1.60;99.90;;;;;;5067447;28;20119;-75
2021/01/27 11:33:12;;;;;;;12.75;4.13;;;1.60;99.90;;;;;;5056107;28;20798;-74
2021/01/27 11:35:38;;;;;;;8.30;4.05;;;1.70;99.90;;;;;;5065565;28;20127;-75
2021/01/27 11:38:04;;;;;;;15.00;7.40;;;1.70;99.90;;;;;;5067993;28;20043;-74
2021/01/27 11:40:30;;;;;;;21.42;10.65;;;1.80;99.90;;;;;;5071111;28;20110;-75
2021/01/27 11:42:56;;;;;;;13.85;8.65;;;1.90;99.90;;;;;;5057059;28;20069;-75
2021/01/27 11:45:22;;;;;;;8.77;3.85;;;1.90;99.90;;;;;;5052012;28;20039;-75
2021/01/27 11:47:48;;;;;;;12.32;2.30;;;1.80;99.90;;;;;;5065362;28;20467;-75
2021/01/27 11:50:16;;;;;;;8.30;3.35;;;1.70;99.90;;;;;;5069801;28;20108;-75
2021/01/27 11:52:43;;;;;;;8.73;3.38;;;1.80;99.90;;;;;;5070181;28;20089;-74
2021/01/27 11:55:09;;;;;;;8.82;3.33;;;1.80;99.90;;;;;;5060468;28;20050;-75
2021/01/27 11:57:35;;;;;;;9.00;2.85;;;1.90;99.90;;;;;;5065922;28;20815;-75
2021/01/27 12:00:02;;;;;;;9.38;3.00;;;1.90;99.90;;;;;;5063097;28;20037;-74
2021/01/27 12:02:27;;;;;;;7.97;2.97;;;1.90;99.90;;;;;;5069840;28;20024;-74
2021/01/27 12:04:53;;;;;;;6.63;2.60;;;1.90;99.90;;;;;;5069100;28;20097;-75
2021/01/27 12:07:19;;;;;;;10.05;2.90;;;1.90;99.90;;;;;;5068750;28;20135;-74
2021/01/27 12:09:44;;;;;;;10.90;3.47;;;1.80;99.90;;;;;;5070244;28;20638;-75
2021/01/27 12:12:10;;;;;;;8.25;3.92;;;1.80;99.90;;;;;;5069943;28;20032;-75
2021/01/27 12:14:36;;;;;;;14.70;8.93;;;1.90;99.90;;;;;;5069781;28;20043;-75
2021/01/27 12:17:02;;;;;;;8.63;3.78;;;1.90;99.90;;;;;;5058310;28;20521;-75
2021/01/27 12:19:28;;;;;;;7.13;3.35;;;1.90;99.90;;;;;;5061234;28;20029;-74
2021/01/27 12:21:54;;;;;;;11.43;4.32;;;1.90;99.90;;;;;;5066197;28;20052;-75
2021/01/27 12:24:19;;;;;;;13.10;3.38;;;1.90;99.90;;;;;;5060908;28;20123;-75
2021/01/27 12:26:45;;;;;;;9.25;3.45;;;1.90;99.90;;;;;;5069775;28;20075;-75
2021/01/27 12:29:11;;;;;;;14.27;5.50;;;1.90;99.90;;;;;;5068818;28;20562;-75
2021/01/27 12:31:37;;;;;;;17.13;6.85;;;1.90;99.90;;;;;;5057577;28;20078;-75
2021/01/27 12:34:03;;;;;;;17.33;8.02;;;2.00;99.90;;;;;;5069339;28;20060;-75
2021/01/27 12:36:29;;;;;;;13.93;7.68;;;2.00;99.90;;;;;;5046315;28;20027;-75
2021/01/27 12:38:54;;;;;;;17.02;8.73;;;2.10;99.90;;;;;;5070756;28;20036;-75
2021/01/27 12:41:20;;;;;;;18.85;8.88;;;2.10;99.90;;;;;;5069320;28;20043;-75
2021/01/27 12:43:46;;;;;;;16.63;9.50;;;2.10;99.90;;;;;;5064094;28;20033;-75
2021/01/27 12:46:12;;;;;;;16.33;8.60;;;2.10;99.90;;;;;;5059530;28;20044;-75
2021/01/27 12:48:38;;;;;;;14.40;6.32;;;2.20;99.90;;;;;;5057155;28;20111;-75
2021/01/27 12:51:04;;;;;;;16.73;6.63;;;2.20;99.90;;;;;;5063525;28;20047;-75
2021/01/27 12:53:30;;;;;;;9.75;4.70;;;2.20;99.90;;;;;;5067288;28;20025;-75
2021/01/27 12:55:56;;;;;;;10.93;4.82;;;2.30;99.90;;;;;;5047228;28;20612;-75
2021/01/27 12:58:22;;;;;;;10.00;4.63;;;2.30;99.90;;;;;;5061284;28;20520;-74
2021/01/27 13:00:48;;;;;;;9.05;3.10;;;2.30;99.90;;;;;;5063644;28;20080;-74
2021/01/27 13:03:14;;;;;;;11.30;6.75;;;2.30;99.90;;;;;;5049643;28;20808;-75
2021/01/27 13:05:40;;;;;;;14.05;8.82;;;2.30;99.90;;;;;;5062979;28;20119;-75
2021/01/27 13:08:06;;;;;;;12.65;7.32;;;2.20;99.90;;;;;;5068540;28;20386;-75
2021/01/27 13:10:32;;;;;;;11.77;4.60;;;2.20;99.90;;;;;;5060467;28;20041;-75
2021/01/27 13:12:59;;;;;;;10.68;3.83;;;2.20;99.90;;;;;;5069330;28;20132;-74
2021/01/27 13:15:25;;;;;;;13.65;6.13;;;2.10;99.90;;;;;;5062978;28;20028;-74